createdAt,value
2019-04-22T00:00:53.632Z,97806.02
2019-04-22T00:02:00.492Z,97808.80
2019-04-22T00:03:05.215Z,97804.31
2019-04-22T00:04:10.868Z,97798.78
2019-04-22T00:05:21.511Z,97803.78
2019-04-22T00:06:42.915Z,97807.76
2019-04-22T00:07:48.732Z,97805.01
2019-04-22T00:08:55.886Z,97804.28
2019-04-22T00:09:59.601Z,97798.56
2019-04-22T00:11:07.945Z,97798.56
2019-04-22T00:12:13.817Z,97794.26
2019-04-22T00:13:21.894Z,97794.55
2019-04-22T00:14:14.786Z,97794.55
2019-04-22T00:15:19.981Z,97790.28
2019-04-22T00:16:43.287Z,97790.28
2019-04-22T00:18:54.891Z,97790.64
2019-04-22T00:19:55.611Z,97790.64
2019-04-22T00:20:52.712Z,97787.47
2019-04-22T00:22:04.509Z,97788.58
2019-04-22T00:23:03.699Z,97789.53
2019-04-22T00:24:12.045Z,97787.21
2019-04-22T00:25:22.596Z,97788.00
2019-04-22T00:26:26.009Z,97792.81
2019-04-22T00:27:29.536Z,97791.77
2019-04-22T00:28:35.019Z,97792.56
2019-04-22T00:29:49.364Z,97789.70
2019-04-22T00:30:45.219Z,97799.00
2019-04-22T00:31:53.091Z,97794.20
2019-04-22T00:33:03.273Z,97792.06
2019-04-22T00:34:09.354Z,97794.48
2019-04-22T00:35:13.034Z,97794.48
2019-04-22T00:36:23.737Z,97789.41
2019-04-22T00:37:28.631Z,97792.48
2019-04-22T00:38:39.498Z,97792.48
2019-04-22T00:39:42.623Z,97788.15
2019-04-22T00:40:49.101Z,97791.24
2019-04-22T00:41:50.812Z,97786.66
2019-04-22T00:42:55.277Z,97779.02
2019-04-22T00:44:02.670Z,97782.37
2019-04-22T00:45:06.365Z,97781.84
2019-04-22T00:46:11.365Z,97779.27
2019-04-22T00:47:23.230Z,97775.76
2019-04-22T00:50:44.327Z,97776.48
2019-04-22T00:51:44.720Z,97780.12
2019-04-22T00:52:52.507Z,97780.12
2019-04-22T00:53:51.231Z,97776.75
2019-04-22T00:55:04.154Z,97777.77
2019-04-22T00:56:07.391Z,97776.94
2019-04-22T00:57:09.979Z,97779.80
2019-04-22T00:58:19.172Z,97779.77
2019-04-22T00:59:18.790Z,97774.77
2019-04-22T01:01:31.093Z,97779.48
2019-04-22T01:02:41.643Z,97774.92
2019-04-22T01:05:09.870Z,97784.22
2019-04-22T01:06:01.254Z,97784.22
2019-04-22T01:06:57.573Z,97783.97
2019-04-22T01:08:09.780Z,97783.17
2019-04-22T01:09:10.882Z,97784.52
2019-04-22T01:10:19.022Z,97783.68
2019-04-22T01:11:29.653Z,97787.44
2019-04-22T01:12:29.731Z,97791.20
2019-04-22T01:13:34.344Z,97783.53
2019-04-22T01:14:41.390Z,97783.53
2019-04-22T01:16:09.357Z,97793.97
2019-04-22T01:16:52.131Z,97789.17
2019-04-22T01:18:00.278Z,97785.95
2019-04-22T01:19:05.335Z,97785.47
2019-04-22T01:20:45.763Z,97784.71
2019-04-22T01:22:17.535Z,97788.25
2019-04-22T01:23:24.605Z,97790.92
2019-04-22T01:24:26.258Z,97792.64
2019-04-22T01:25:31.266Z,97790.28
2019-04-22T01:26:36.277Z,97788.44
2019-04-22T01:27:39.242Z,97793.02
2019-04-22T01:28:46.092Z,97791.78
2019-04-22T01:29:48.964Z,97782.27
2019-04-22T01:30:51.454Z,97791.31
2019-04-22T01:31:51.005Z,97788.86
2019-04-22T01:33:06.825Z,97790.45
2019-04-22T01:34:16.159Z,97790.45
2019-04-22T01:35:20.768Z,97788.63
2019-04-22T01:36:30.286Z,97789.46
2019-04-22T01:37:34.626Z,97786.84
2019-04-22T01:38:56.321Z,97790.29
2019-04-22T01:39:57.283Z,97786.05
2019-04-22T01:41:04.490Z,97791.63
2019-04-22T01:42:05.973Z,97789.81
2019-04-22T01:45:29.523Z,97789.48
2019-04-22T01:46:31.473Z,97787.66
2019-04-22T01:48:39.397Z,97789.48
2019-04-22T01:49:44.087Z,97789.48
2019-04-22T01:50:49.683Z,97787.09
2019-04-22T01:51:58.668Z,97789.00
2019-04-22T01:55:21.639Z,97795.17
2019-04-22T01:56:24.216Z,97803.45
2019-04-22T01:57:20.852Z,97798.10
2019-04-22T01:58:23.866Z,97801.03
2019-04-22T01:59:30.178Z,97801.86
2019-04-22T02:00:39.947Z,97797.11
2019-04-22T02:02:48.745Z,97793.41
2019-04-22T02:03:59.033Z,97794.27
2019-04-22T02:05:02.902Z,97795.91
2019-04-22T02:06:07.537Z,97792.98
2019-04-22T02:07:09.657Z,97792.73
2019-04-22T02:08:25.168Z,97800.23
2019-04-22T02:09:31.741Z,97797.34
2019-04-22T02:10:34.609Z,97801.09
2019-04-22T02:11:39.085Z,97797.42
2019-04-22T02:12:38.826Z,97800.13
2019-04-22T02:13:42.823Z,97800.13
2019-04-22T02:14:53.365Z,97797.20
2019-04-22T02:17:02.340Z,97800.20
2019-04-22T02:18:11.265Z,97806.29
2019-04-22T02:19:18.488Z,97794.58
2019-04-22T02:20:31.534Z,97794.33
2019-04-22T02:21:20.438Z,97795.66
2019-04-22T02:22:42.844Z,97802.81
2019-04-22T02:24:41.215Z,97796.23
2019-04-22T02:25:50.928Z,97798.67
2019-04-22T02:27:00.322Z,97798.67
2019-04-22T02:27:54.754Z,97796.82
2019-04-22T02:28:53.660Z,97801.91
2019-04-22T02:29:58.230Z,97798.49
2019-04-22T02:32:28.090Z,97800.63
2019-04-22T02:34:37.584Z,97806.22
2019-04-22T02:35:58.209Z,97805.70
2019-04-22T02:37:45.429Z,97806.33
2019-04-22T02:40:03.845Z,97806.05
2019-04-22T02:42:16.526Z,97812.19
2019-04-22T02:43:30.781Z,97809.82
2019-04-22T02:44:16.728Z,97805.87
2019-04-22T02:45:26.470Z,97812.83
2019-04-22T02:47:54.523Z,97812.36
2019-04-22T02:49:45.474Z,97817.50
2019-04-22T02:51:52.274Z,97811.23
2019-04-22T02:53:13.879Z,97808.12
2019-04-22T02:55:20.960Z,97810.05
2019-04-22T02:58:47.798Z,97813.86
2019-04-22T03:00:46.345Z,97805.80
2019-04-22T03:05:11.321Z,97816.13
2019-04-22T03:07:12.766Z,97816.42
2019-04-22T03:08:24.004Z,97818.81
2019-04-22T03:09:35.706Z,97811.95
2019-04-22T03:10:47.236Z,97810.36
2019-04-22T03:12:41.221Z,97811.47
2019-04-22T03:13:55.190Z,97808.28
2019-04-22T03:16:14.182Z,97811.59
2019-04-22T03:17:08.654Z,97814.00
2019-04-22T03:18:21.775Z,97820.53
2019-04-22T03:20:14.232Z,97815.72
2019-04-22T03:21:33.882Z,97813.69
2019-04-22T03:22:34.614Z,97823.81
2019-04-22T03:24:51.518Z,97817.16
2019-04-22T03:27:52.528Z,97818.18
2019-04-22T03:29:07.471Z,97818.98
2019-04-22T03:31:54.888Z,97819.03
2019-04-22T03:33:44.275Z,97816.69
2019-04-22T03:35:52.986Z,97814.86
2019-04-22T03:38:11.310Z,97819.61
2019-04-22T03:40:13.997Z,97822.66
2019-04-22T03:41:31.841Z,97822.66
2019-04-22T03:42:35.615Z,97821.31
2019-04-22T03:43:35.892Z,97817.31
2019-04-22T03:46:55.342Z,97826.89
2019-04-22T03:48:05.564Z,97821.44
2019-04-22T03:49:12.105Z,97826.27
2019-04-22T03:50:19.176Z,97827.16
2019-04-22T03:51:19.532Z,97825.11
2019-04-22T03:52:20.422Z,97824.88
2019-04-22T03:53:29.141Z,97831.58
2019-04-22T03:57:07.253Z,97833.74
2019-04-22T03:58:49.579Z,97836.53
2019-04-22T04:00:03.370Z,97835.23
2019-04-22T04:00:55.452Z,97835.84
2019-04-22T04:05:33.438Z,97836.45
2019-04-22T04:06:35.566Z,97832.94
2019-04-22T04:07:45.579Z,97832.62
2019-04-22T04:08:33.303Z,97835.05
2019-04-22T04:09:42.632Z,97837.27
2019-04-22T04:13:03.567Z,97843.21
2019-04-22T04:14:11.928Z,97846.94
2019-04-22T04:15:17.331Z,97848.02
2019-04-22T04:16:12.906Z,97845.91
2019-04-22T04:17:26.635Z,97851.74
2019-04-22T04:18:30.128Z,97854.66
2019-04-22T04:19:47.987Z,97849.34
2019-04-22T04:21:09.137Z,97856.55
2019-04-22T04:21:41.880Z,97858.67
2019-04-22T04:23:05.299Z,97857.07
2019-04-22T04:25:16.802Z,97862.05
2019-04-22T04:27:43.830Z,97869.03
2019-04-22T04:29:36.062Z,97871.42
2019-04-22T04:33:48.368Z,97873.29
2019-04-22T04:36:01.501Z,97874.84
2019-04-22T04:37:10.280Z,97872.96
2019-04-22T04:37:58.763Z,97865.81
2019-04-22T04:41:34.356Z,97861.55
2019-04-22T04:43:37.819Z,97868.23
2019-04-22T04:45:45.292Z,97865.55
2019-04-22T04:46:59.364Z,97862.89
2019-04-22T04:47:57.867Z,97863.70
2019-04-22T04:50:07.071Z,97861.28
2019-04-22T04:51:20.014Z,97865.00
2019-04-22T04:52:27.621Z,97868.17
2019-04-22T04:53:22.855Z,97871.88
2019-04-22T04:54:30.289Z,97871.88
2019-04-22T04:55:46.499Z,97871.32
2019-04-22T04:59:05.553Z,97866.52
2019-04-22T05:02:10.046Z,97870.45
2019-04-22T05:04:25.520Z,97869.13
2019-04-22T05:06:39.631Z,97864.08
2019-04-22T05:07:48.527Z,97868.29
2019-04-22T05:09:47.274Z,97866.64
2019-04-22T05:11:01.081Z,97862.39
2019-04-22T05:12:01.763Z,97862.34
2019-04-22T05:13:10.776Z,97865.47
2019-04-22T05:15:42.901Z,97864.24
2019-04-22T05:17:27.933Z,97864.58
2019-04-22T05:18:29.317Z,97856.83
2019-04-22T05:21:43.531Z,97851.00
2019-04-22T05:22:44.754Z,97855.27
2019-04-22T05:24:00.976Z,97856.89
2019-04-22T05:24:58.211Z,97853.22
2019-04-22T05:26:12.620Z,97857.02
2019-04-22T05:28:15.201Z,97849.87
2019-04-22T05:29:26.640Z,97855.19
2019-04-22T05:31:38.900Z,97854.88
2019-04-22T05:33:48.207Z,97847.28
2019-04-22T05:35:09.626Z,97847.76
2019-04-22T05:35:54.788Z,97849.55
2019-04-22T05:37:00.931Z,97842.25
2019-04-22T05:38:13.353Z,97844.77
2019-04-22T05:39:14.199Z,97841.56
2019-04-22T05:40:25.961Z,97843.97
2019-04-22T05:41:32.357Z,97839.60
2019-04-22T05:42:29.462Z,97845.14
2019-04-22T05:43:42.645Z,97840.77
2019-04-22T05:45:56.325Z,97843.33
2019-04-22T05:47:04.746Z,97841.55
2019-04-22T05:48:10.950Z,97841.55
2019-04-22T05:50:18.720Z,97843.42
2019-04-22T05:51:25.937Z,97836.94
2019-04-22T05:52:34.425Z,97839.62
2019-04-22T05:53:32.476Z,97840.41
2019-04-22T05:54:42.763Z,97843.11
2019-04-22T05:55:48.898Z,97829.16
2019-04-22T05:56:47.740Z,97835.54
2019-04-22T05:57:59.661Z,97838.37
2019-04-22T05:59:04.370Z,97832.41
2019-04-22T06:00:19.296Z,97826.94
2019-04-22T06:02:30.535Z,97827.09
2019-04-22T06:03:35.205Z,97819.76
2019-04-22T06:04:29.526Z,97825.81
2019-04-22T06:05:35.733Z,97821.53
2019-04-22T06:06:45.249Z,97816.26
2019-04-22T06:07:57.415Z,97824.14
2019-04-22T06:09:02.255Z,97828.29
2019-04-22T06:10:04.263Z,97812.69
2019-04-22T06:11:21.706Z,97813.17
2019-04-22T06:12:09.855Z,97808.28
2019-04-22T06:13:17.778Z,97807.84
2019-04-22T06:14:24.756Z,97806.06
2019-04-22T06:15:36.282Z,97804.98
2019-04-22T06:16:44.036Z,97803.30
2019-04-22T06:17:54.848Z,97800.22
2019-04-22T06:19:00.900Z,97803.72
2019-04-22T06:20:02.629Z,97799.42
2019-04-22T06:21:11.156Z,97800.34
2019-04-22T06:22:22.417Z,97796.41
2019-04-22T06:25:51.372Z,97800.95
2019-04-22T06:27:41.624Z,97804.39
2019-04-22T06:28:51.515Z,97806.31
2019-04-22T06:29:58.570Z,97804.76
2019-04-22T06:31:06.896Z,97804.08
2019-04-22T06:34:22.385Z,97797.27
2019-04-22T06:36:37.521Z,97786.81
2019-04-22T06:37:46.534Z,97782.69
2019-04-22T06:38:39.281Z,97790.77
2019-04-22T06:39:51.032Z,97792.40
2019-04-22T06:41:07.345Z,97786.16
2019-04-22T06:42:11.442Z,97786.16
2019-04-22T06:43:19.943Z,97789.08
2019-04-22T06:44:29.571Z,97789.20
2019-04-22T06:45:27.458Z,97787.98
2019-04-22T06:46:27.535Z,97770.63
2019-04-22T06:47:47.336Z,97770.63
2019-04-22T06:48:34.685Z,97778.26
2019-04-22T06:49:41.683Z,97767.35
2019-04-22T06:50:51.025Z,97767.35
2019-04-22T06:51:55.555Z,97780.70
2019-04-22T06:54:07.511Z,97774.75
2019-04-22T06:55:16.757Z,97772.14
2019-04-22T06:56:16.179Z,97770.80
2019-04-22T06:57:25.777Z,97775.39
2019-04-22T06:58:28.615Z,97769.70
2019-04-22T06:59:31.213Z,97765.48
2019-04-22T07:00:42.925Z,97769.60
2019-04-22T07:01:55.032Z,97771.38
2019-04-22T07:03:10.199Z,97770.66
2019-04-22T07:05:03.690Z,97769.18
2019-04-22T07:06:09.502Z,97765.85
2019-04-22T07:07:12.700Z,97768.13
2019-04-22T07:09:04.070Z,97768.13
2019-04-22T07:09:34.987Z,97770.67
2019-04-22T07:11:37.890Z,97759.48
2019-04-22T07:13:01.552Z,97771.53
2019-04-22T07:13:57.051Z,97762.86
2019-04-22T07:14:53.489Z,97766.68
2019-04-22T07:16:20.792Z,97763.09
2019-04-22T07:17:07.083Z,97761.06
2019-04-22T07:18:18.154Z,97755.44
2019-04-22T07:19:20.636Z,97755.44
2019-04-22T07:20:31.650Z,97758.58
2019-04-22T07:21:32.189Z,97754.84
2019-04-22T07:22:38.477Z,97751.30
2019-04-22T07:25:56.733Z,97743.19
2019-04-22T07:26:58.207Z,97742.36
2019-04-22T07:28:08.305Z,97737.10
2019-04-22T07:29:07.520Z,97738.88
2019-04-22T07:30:22.031Z,97736.77
2019-04-22T07:31:17.465Z,97735.19
2019-04-22T07:32:48.352Z,97734.43
2019-04-22T07:33:32.361Z,97729.99
2019-04-22T07:36:54.693Z,97729.63
2019-04-22T07:37:47.687Z,97722.25
2019-04-22T07:39:01.729Z,97722.02
2019-04-22T07:40:02.060Z,97722.42
2019-04-22T07:41:10.534Z,97722.86
2019-04-22T07:42:19.332Z,97715.02
2019-04-22T07:43:30.581Z,97714.79
2019-04-22T07:45:39.148Z,97712.50
2019-04-22T07:46:43.091Z,97711.42
2019-04-22T07:47:44.372Z,97707.08
2019-04-22T07:48:51.858Z,97702.27
2019-04-22T07:49:59.252Z,97707.32
2019-04-22T07:51:03.946Z,97705.64
2019-04-22T07:52:05.073Z,97711.41
2019-04-22T07:53:11.773Z,97711.86
2019-04-22T07:54:14.359Z,97707.44
2019-04-22T07:55:25.878Z,97710.28
2019-04-22T07:56:24.736Z,97705.08
2019-04-22T07:58:37.656Z,97699.73
2019-04-22T07:59:52.385Z,97696.20
2019-04-22T08:00:47.631Z,97694.83
2019-04-22T08:01:55.979Z,97688.97
2019-04-22T08:03:06.522Z,97688.62
2019-04-22T08:06:17.314Z,97680.80
2019-04-22T08:07:26.040Z,97683.02
2019-04-22T08:08:28.962Z,97675.44
2019-04-22T08:09:37.433Z,97677.14
2019-04-22T08:10:43.062Z,97674.41
2019-04-22T08:11:49.975Z,97668.56
2019-04-22T08:12:51.902Z,97664.28
2019-04-22T08:13:54.843Z,97666.26
2019-04-22T08:15:00.369Z,97668.78
2019-04-22T08:16:16.357Z,97662.97
2019-04-22T08:17:38.714Z,97656.31
2019-04-22T08:18:17.770Z,97661.31
2019-04-22T08:20:30.833Z,97660.05
2019-04-22T08:21:38.229Z,97664.11
2019-04-22T08:22:42.658Z,97660.55
2019-04-22T08:23:50.863Z,97662.58
2019-04-22T08:24:54.279Z,97658.88
2019-04-22T08:25:59.151Z,97655.70
2019-04-22T08:27:09.135Z,97652.87
2019-04-22T08:28:13.377Z,97649.64
2019-04-22T08:29:21.983Z,97651.22
2019-04-22T08:30:29.040Z,97652.31
2019-04-22T08:31:28.667Z,97646.92
2019-04-22T08:32:38.056Z,97651.28
2019-04-22T08:34:42.836Z,97652.66
2019-04-22T08:36:09.044Z,97644.14
2019-04-22T08:39:08.327Z,97645.03
2019-04-22T08:40:12.476Z,97648.86
2019-04-22T08:41:27.300Z,97651.13
2019-04-22T08:42:36.539Z,97644.38
2019-04-22T08:43:39.487Z,97648.30
2019-04-22T08:45:05.828Z,97641.98
2019-04-22T08:45:51.146Z,97641.48
2019-04-22T08:46:50.699Z,97637.56
2019-04-22T08:47:55.272Z,97649.65
2019-04-22T08:49:00.817Z,97638.80
2019-04-22T08:50:10.365Z,97638.34
2019-04-22T08:51:15.503Z,97641.03
2019-04-22T08:52:20.807Z,97637.84
2019-04-22T08:53:28.620Z,97631.80
2019-04-22T08:54:30.895Z,97630.33
2019-04-22T08:55:41.783Z,97630.33
2019-04-22T08:58:57.062Z,97632.77
2019-04-22T09:01:05.106Z,97626.71
2019-04-22T09:02:17.462Z,97633.92
2019-04-22T09:03:14.050Z,97628.33
2019-04-22T09:04:11.962Z,97623.32
2019-04-22T09:05:42.064Z,97626.15
2019-04-22T09:06:39.664Z,97621.24
2019-04-22T09:07:38.160Z,97624.59
2019-04-22T09:08:41.772Z,97622.18
2019-04-22T09:09:47.253Z,97620.38
2019-04-22T09:10:51.936Z,97618.73
2019-04-22T09:14:14.072Z,97612.19
2019-04-22T09:15:20.619Z,97608.77
2019-04-22T09:16:27.986Z,97611.13
2019-04-22T09:17:28.592Z,97620.03
2019-04-22T09:18:35.118Z,97612.09
2019-04-22T09:19:34.061Z,97611.30
2019-04-22T09:20:54.871Z,97611.21
2019-04-22T09:21:57.542Z,97609.83
2019-04-22T09:22:56.799Z,97604.52
2019-04-22T09:25:03.303Z,97606.89
2019-04-22T09:26:09.476Z,97614.11
2019-04-22T09:28:22.808Z,97601.07
2019-04-22T09:29:32.514Z,97601.92
2019-04-22T09:32:01.751Z,97597.54
2019-04-22T09:32:44.766Z,97594.70
2019-04-22T09:33:47.660Z,97597.01
2019-04-22T09:34:51.962Z,97598.52
2019-04-22T09:36:09.410Z,97592.32
2019-04-22T09:37:11.701Z,97591.72
2019-04-22T09:38:25.733Z,97599.56
2019-04-22T09:39:28.295Z,97598.47
2019-04-22T09:40:21.792Z,97585.99
2019-04-22T09:41:31.533Z,97591.87
2019-04-22T09:42:38.864Z,97592.14
2019-04-22T09:44:47.807Z,97588.55
2019-04-22T09:45:47.897Z,97584.37
2019-04-22T09:46:54.673Z,97576.69
2019-04-22T09:48:00.947Z,97576.95
2019-04-22T09:49:12.262Z,97577.90
2019-04-22T09:50:29.417Z,97573.92
2019-04-22T09:51:11.581Z,97572.19
2019-04-22T09:52:25.725Z,97569.83
2019-04-22T09:53:34.019Z,97569.81
2019-04-22T09:54:39.940Z,97571.71
2019-04-22T09:55:37.376Z,97568.50
2019-04-22T09:56:43.940Z,97565.44
2019-04-22T09:57:52.474Z,97555.17
2019-04-22T09:58:50.505Z,97563.53
2019-04-22T10:00:04.338Z,97557.77
2019-04-22T10:01:19.046Z,97559.64
2019-04-22T10:02:31.786Z,97566.70
2019-04-22T10:03:20.401Z,97557.28
2019-04-22T10:04:29.118Z,97552.56
2019-04-22T10:05:34.135Z,97549.97
2019-04-22T10:06:45.748Z,97551.44
2019-04-22T10:07:47.338Z,97556.16
2019-04-22T10:09:02.090Z,97547.26
2019-04-22T10:11:05.997Z,97544.23
2019-04-22T10:12:02.678Z,97541.77
2019-04-22T10:13:12.872Z,97537.15
2019-04-22T10:14:18.746Z,97536.15
2019-04-22T10:15:20.886Z,97532.13
2019-04-22T10:17:31.624Z,97536.19
2019-04-22T10:18:38.713Z,97533.39
2019-04-22T10:19:43.910Z,97535.56
2019-04-22T10:20:54.457Z,97531.24
2019-04-22T10:22:16.667Z,97524.95
2019-04-22T10:22:57.702Z,97531.03
2019-04-22T10:25:10.754Z,97523.27
2019-04-22T10:26:23.543Z,97522.13
2019-04-22T10:27:20.838Z,97525.67
2019-04-22T10:28:32.347Z,97522.67
2019-04-22T10:29:39.238Z,97521.48
2019-04-22T10:30:46.170Z,97522.05
2019-04-22T10:31:43.624Z,97517.98
2019-04-22T10:32:48.153Z,97512.62
2019-04-22T10:33:48.215Z,97512.16
2019-04-22T10:34:47.281Z,97509.70
2019-04-22T10:35:45.728Z,97515.13
2019-04-22T10:36:53.134Z,97509.92
2019-04-22T10:37:56.363Z,97511.09
2019-04-22T10:39:00.332Z,97502.63
2019-04-22T10:40:09.134Z,97508.16
2019-04-22T10:41:12.215Z,97505.80
2019-04-22T10:42:17.407Z,97505.62
2019-04-22T10:43:21.225Z,97508.77
2019-04-22T10:44:24.840Z,97494.86
2019-04-22T10:45:28.478Z,97509.33
2019-04-22T10:46:32.158Z,97499.32
2019-04-22T10:47:36.080Z,97494.59
2019-04-22T10:48:40.135Z,97487.05
2019-04-22T10:49:44.501Z,97487.52
2019-04-22T10:50:48.923Z,97481.53
2019-04-22T10:51:52.919Z,97484.95
2019-04-22T10:52:57.429Z,97483.44
2019-04-22T10:54:01.827Z,97480.08
2019-04-22T10:55:09.584Z,97484.69
2019-04-22T10:56:14.765Z,97494.29
2019-04-22T10:57:20.036Z,97486.22
2019-04-22T10:58:24.839Z,97477.70
2019-04-22T10:59:28.950Z,97484.48
2019-04-22T11:00:35.594Z,97480.79
2019-04-22T11:01:40.444Z,97486.16
2019-04-22T11:02:45.585Z,97481.89
2019-04-22T11:03:51.007Z,97478.59
2019-04-22T11:04:54.840Z,97478.83
2019-04-22T11:05:59.320Z,97479.42
2019-04-22T11:07:06.908Z,97477.44
2019-04-22T11:08:10.236Z,97479.09
2019-04-22T11:09:14.278Z,97474.49
2019-04-22T11:10:35.493Z,97478.25
2019-04-22T11:11:34.812Z,97473.94
2019-04-22T11:12:32.269Z,97468.97
2019-04-22T11:13:35.841Z,97469.87
2019-04-22T11:14:42.755Z,97468.91
2019-04-22T11:15:45.046Z,97465.86
2019-04-22T11:16:49.752Z,97465.70
2019-04-22T11:17:53.796Z,97467.78
2019-04-22T11:18:57.426Z,97461.79
2019-04-22T11:20:01.906Z,97463.22
2019-04-22T11:21:05.724Z,97458.43
2019-04-22T11:22:16.892Z,97451.92
2019-04-22T11:23:14.734Z,97453.57
2019-04-22T11:24:18.851Z,97459.72
2019-04-22T11:25:23.616Z,97461.11
2019-04-22T11:26:28.281Z,97468.43
2019-04-22T11:27:32.907Z,97452.80
2019-04-22T11:28:38.037Z,97459.10
2019-04-22T11:29:41.856Z,97466.28
2019-04-22T11:30:45.580Z,97456.27
2019-04-22T11:31:50.505Z,97458.13
2019-04-22T11:32:54.432Z,97455.65
2019-04-22T11:33:58.559Z,97459.67
2019-04-22T11:35:03.631Z,97458.84
2019-04-22T11:36:08.060Z,97450.27
2019-04-22T11:37:12.274Z,97456.17
2019-04-22T11:38:17.261Z,97450.55
2019-04-22T11:39:21.800Z,97454.38
2019-04-22T11:40:34.789Z,97453.23
2019-04-22T11:41:31.242Z,97451.62
2019-04-22T11:42:36.345Z,97447.23
2019-04-22T11:43:41.171Z,97443.62
2019-04-22T11:44:45.414Z,97442.05
2019-04-22T11:45:49.469Z,97449.63
2019-04-22T11:46:53.664Z,97442.33
2019-04-22T11:47:57.382Z,97446.19
2019-04-22T11:49:01.012Z,97441.04
2019-04-22T11:50:08.076Z,97431.85
2019-04-22T11:51:11.735Z,97435.94
2019-04-22T11:52:17.276Z,97435.24
2019-04-22T11:53:20.768Z,97430.81
2019-04-22T11:54:25.118Z,97432.53
2019-04-22T11:55:28.953Z,97431.30
2019-04-22T11:56:32.665Z,97434.64
2019-04-22T11:57:37.175Z,97442.25
2019-04-22T11:58:40.877Z,97432.31
2019-04-22T11:59:46.831Z,97433.41
2019-04-22T12:00:51.944Z,97436.03
2019-04-22T12:01:57.050Z,97436.03
2019-04-22T12:03:00.938Z,97435.52
2019-04-22T12:04:04.653Z,97433.64
2019-04-22T12:05:11.985Z,97424.56
2019-04-22T12:06:15.863Z,97436.78
2019-04-22T12:07:21.207Z,97435.17
2019-04-22T12:08:25.226Z,97428.68
2019-04-22T12:09:29.910Z,97426.36
2019-04-22T12:10:42.422Z,97421.55
2019-04-22T12:11:40.483Z,97427.72
2019-04-22T12:12:46.591Z,97414.95
2019-04-22T12:13:49.890Z,97420.34
2019-04-22T12:14:54.434Z,97418.19
2019-04-22T12:15:59.038Z,97410.31
2019-04-22T12:17:03.572Z,97410.36
2019-04-22T12:18:09.216Z,97417.59
2019-04-22T12:19:13.329Z,97421.20
2019-04-22T12:20:20.187Z,97416.08
2019-04-22T12:21:24.027Z,97424.86
2019-04-22T12:22:29.136Z,97415.03
2019-04-22T12:23:32.949Z,97403.72
2019-04-22T12:24:38.375Z,97404.42
2019-04-22T12:25:51.626Z,97410.80
2019-04-22T12:26:48.387Z,97413.41
2019-04-22T12:27:52.955Z,97411.80
2019-04-22T12:28:57.271Z,97411.02
2019-04-22T12:30:02.994Z,97405.70
2019-04-22T12:31:06.688Z,97401.45
2019-04-22T12:32:11.537Z,97398.59
2019-04-22T12:33:15.730Z,97401.98
2019-04-22T12:34:21.553Z,97402.08
2019-04-22T12:35:26.292Z,97403.32
2019-04-22T12:36:30.717Z,97390.39
2019-04-22T12:37:43.573Z,97392.72
2019-04-22T12:38:40.018Z,97384.36
2019-04-22T12:39:45.298Z,97393.12
2019-04-22T12:40:56.583Z,97382.73
2019-04-22T12:41:56.105Z,97387.61
2019-04-22T12:43:04.161Z,97387.07
2019-04-22T12:44:07.470Z,97389.59
2019-04-22T12:45:12.270Z,97387.70
2019-04-22T12:46:16.351Z,97380.48
2019-04-22T12:47:20.265Z,97373.70
2019-04-22T12:48:25.263Z,97371.59
2019-04-22T12:49:29.982Z,97380.70
2019-04-22T12:50:37.241Z,97383.94
2019-04-22T12:51:39.058Z,97374.62
2019-04-22T12:52:50.516Z,97378.10
2019-04-22T12:53:48.874Z,97376.81
2019-04-22T12:54:52.991Z,97379.16
2019-04-22T12:55:57.382Z,97378.31
2019-04-22T12:57:01.846Z,97371.33
2019-04-22T12:58:05.557Z,97370.51
2019-04-22T12:59:09.757Z,97371.41
2019-04-22T13:00:15.635Z,97374.92
2019-04-22T13:01:19.509Z,97371.03
2019-04-22T13:02:23.190Z,97380.38
2019-04-22T13:03:26.848Z,97366.09
2019-04-22T13:04:32.158Z,97371.65
2019-04-22T13:05:37.463Z,97373.75
2019-04-22T13:06:41.971Z,97367.58
2019-04-22T13:07:45.777Z,97362.61
2019-04-22T13:08:49.847Z,97359.83
2019-04-22T13:09:55.138Z,97364.11
2019-04-22T13:11:05.774Z,97357.59
2019-04-22T13:12:04.406Z,97357.66
2019-04-22T13:13:09.202Z,97353.19
2019-04-22T13:14:12.980Z,97351.92
2019-04-22T13:15:19.984Z,97366.44
2019-04-22T13:16:25.007Z,97356.23
2019-04-22T13:17:29.166Z,97353.69
2019-04-22T13:18:39.971Z,97365.06
2019-04-22T13:19:38.380Z,97350.25
2019-04-22T13:20:42.342Z,97356.55
2019-04-22T13:21:46.806Z,97354.44
2019-04-22T13:22:50.676Z,97351.98
2019-04-22T13:23:54.886Z,97357.48
2019-04-22T13:24:59.703Z,97357.45
2019-04-22T13:26:03.487Z,97352.75
2019-04-22T13:27:08.595Z,97351.75
2019-04-22T13:28:13.279Z,97353.47
2019-04-22T13:29:17.167Z,97339.14
2019-04-22T13:30:22.886Z,97347.73
2019-04-22T13:31:26.959Z,97350.23
2019-04-22T13:32:31.421Z,97348.91
2019-04-22T13:33:35.090Z,97358.70
2019-04-22T13:34:45.833Z,97342.70
2019-04-22T13:35:45.804Z,97349.65
2019-04-22T13:36:50.344Z,97349.42
2019-04-22T13:37:54.950Z,97350.66
2019-04-22T13:38:58.914Z,97346.09
2019-04-22T13:40:03.537Z,97344.64
2019-04-22T13:41:21.473Z,97346.02
2019-04-22T13:42:18.002Z,97343.41
2019-04-22T13:43:18.910Z,97343.93
2019-04-22T13:44:23.037Z,97337.72
2019-04-22T13:45:27.638Z,97336.39
2019-04-22T13:46:33.646Z,97334.12
2019-04-22T13:47:59.646Z,97334.05
2019-04-22T13:49:08.735Z,97337.83
2019-04-22T13:50:31.344Z,97341.37
2019-04-22T13:51:48.759Z,97336.86
2019-04-22T13:53:46.287Z,97334.94
2019-04-22T13:56:45.115Z,97356.30
2019-04-22T13:57:41.399Z,97350.42
2019-04-22T13:58:44.907Z,97350.31
2019-04-22T13:59:44.047Z,97341.66
2019-04-22T14:00:42.847Z,97342.41
2019-04-22T14:01:48.471Z,97347.35
2019-04-22T14:02:58.157Z,97343.25
2019-04-22T14:04:07.127Z,97345.45
2019-04-22T14:05:12.913Z,97359.31
2019-04-22T14:06:16.732Z,97356.78
2019-04-22T14:07:20.913Z,97350.06
2019-04-22T14:08:24.965Z,97355.84
2019-04-22T14:09:28.735Z,97356.47
2019-04-22T14:10:32.367Z,97346.28
2019-04-22T14:11:46.147Z,97347.84
2019-04-22T14:12:42.539Z,97343.26
2019-04-22T14:13:47.917Z,97349.00
2019-04-22T14:14:52.574Z,97342.09
2019-04-22T14:15:57.034Z,97360.44
2019-04-22T14:17:01.138Z,97343.47
2019-04-22T14:18:07.268Z,97347.90
2019-04-22T14:19:11.913Z,97353.30
2019-04-22T14:20:16.334Z,97348.45
2019-04-22T14:21:21.041Z,97346.06
2019-04-22T14:22:26.261Z,97345.02
2019-04-22T14:23:30.868Z,97349.50
2019-04-22T14:24:34.765Z,97350.25
2019-04-22T14:25:38.780Z,97352.34
2019-04-22T14:26:54.954Z,97346.10
2019-04-22T14:27:56.545Z,97352.59
2019-04-22T14:28:53.538Z,97347.78
2019-04-22T14:29:57.711Z,97348.54
2019-04-22T14:31:02.375Z,97344.61
2019-04-22T14:32:15.041Z,97355.38
2019-04-22T14:33:12.114Z,97355.27
2019-04-22T14:34:16.953Z,97344.57
2019-04-22T14:35:22.998Z,97357.88
2019-04-22T14:36:27.573Z,97355.58
2019-04-22T14:37:32.156Z,97347.19
2019-04-22T14:38:36.763Z,97343.63
2019-04-22T14:39:41.870Z,97350.50
2019-04-22T14:40:45.602Z,97343.28
2019-04-22T14:43:13.217Z,97339.09
2019-04-22T14:44:24.249Z,97344.68
2019-04-22T14:45:05.166Z,97344.94
2019-04-22T14:45:41.831Z,97342.09
2019-04-22T14:46:45.577Z,97339.91
2019-04-22T14:47:42.151Z,97340.06
2019-04-22T14:48:57.316Z,97331.00
2019-04-22T14:49:53.908Z,97337.38
2019-04-22T14:50:51.736Z,97332.39
2019-04-22T14:52:03.555Z,97336.97
2019-04-22T14:53:03.957Z,97339.23
2019-04-22T14:54:06.667Z,97335.13
2019-04-22T14:55:06.098Z,97335.28